Main page
METAR-TAF:

METAR-TAF

Airports :

Ekofisk, Norway

Oil platform

latitude: 56-33N, longitude: 003-15E, elevation: 3 m

Current weather observation

The report was made 50 minutes ago, at 06:20 UTC
Wind 13 kt from the East
Temperature 15°C
Humidity 88%
Pressure 1026 hPa
Visibility 10 km or more
Few clouds at a height of 3500 ft
Broken clouds at a height of 6000 ft

METAR: ENLE 260620Z 08013KT 9999 FEW035 BKN060 15/13 Q1026 W15/S4

Time: 09:10 (07:10 UTC)

Forecast

The report was made 2 hours and 10 minutes ago, at 05:00 UTC
Forecast valid from 26 at 06 UTC to 26 at 15 UTC
Wind 20 kt from the East
Visibility 10 km or more
Few clouds at a height of 1000 ft
Broken clouds at a height of 3500 ft

TAF: ENLE 260500Z 2606/2615 08020KT 9999 FEW010 BKN035

Weather observations and forecasts of more than 4000 airports (METAR and TAF reports).

The available stations are represented by yellow and red dots on the map.

Hover mouse over dot to see the name of the station.

Then click to see weather observations and forecasts.

To change the map : click on the green buttons with a black cross to zoom in, on the green button with a dash to zoom out, or on the green arrows for adjacent maps.


METAR-TAF: